Time;durP1;ratioP1;P1;durP2;ratioP2;P2;SDS_P1;SDS_P2;PMS_P1;PMS_P2;Temp;Humidity;BMP_temperature;BMP_pressure;BME280_temperature;BME280_humidity;BME280_pressure;Samples;Min_cycle;Max_cycle;Signal;HPM_P1;HPM_P2
2022/04/06 00:04:18;;;;;;;4.75;4.45;;;;;;;9.72;79.24;98781.13;10104110;29;20452;-72
2022/04/06 00:09:20;;;;;;;5.95;5.55;;;;;;;9.78;79.35;98786.09;10103407;29;20053;-73
2022/04/06 00:14:22;;;;;;;5.30;4.93;;;;;;;9.87;78.92;98790.03;10104934;29;20045;-73
2022/04/06 00:19:23;;;;;;;5.72;5.32;;;;;;;9.91;78.54;98783.69;10105521;29;20488;-73
2022/04/06 00:24:25;;;;;;;5.20;4.90;;;;;;;9.85;78.66;98776.13;10104707;29;20055;-73
2022/04/06 00:29:26;;;;;;;5.95;5.55;;;;;;;9.84;78.87;98790.19;10104063;29;20048;-73
2022/04/06 00:39:48;;;;;;;6.30;5.90;;;;;;;9.85;79.11;98787.47;10104564;29;20114;-73
2022/04/06 00:44:50;;;;;;;6.70;6.30;;;;;;;9.73;80.31;98798.56;10103464;29;20049;-73
2022/04/06 00:49:52;;;;;;;7.45;6.95;;;;;;;9.58;81.93;98794.91;10103875;29;20057;-73
2022/04/06 00:54:54;;;;;;;7.72;7.22;;;;;;;9.57;82.70;98801.09;10103277;29;20100;-73
2022/04/06 00:59:56;;;;;;;6.80;6.40;;;;;;;9.48;84.54;98800.69;10103520;29;20057;-74
2022/04/06 01:04:58;;;;;;;6.63;6.22;;;;;;;9.41;86.18;98805.34;10103323;29;20052;-74
2022/04/06 01:10:00;;;;;;;7.75;7.25;;;;;;;9.28;88.07;98798.97;10102467;29;20052;-73
2022/04/06 01:15:01;;;;;;;7.07;6.57;;;;;;;9.12;89.99;98792.72;10101021;29;20052;-72
2022/04/06 01:20:05;;;;;;;8.52;8.02;;;;;;;9.04;91.23;98799.16;10101713;29;20112;-72
2022/04/06 01:25:08;;;;;;;8.60;8.07;;;;;;;8.96;93.32;98790.78;10099644;29;20045;-73
2022/04/06 01:30:10;;;;;;;9.57;8.93;;;;;;;8.87;93.74;98796.44;10101325;29;20045;-73
2022/04/06 01:35:11;;;;;;;9.80;9.20;;;;;;;8.85;94.20;98798.28;10102423;29;20078;-72
2022/04/06 01:40:13;;;;;;;10.20;9.50;;;;;;;8.78;95.46;98799.47;10102129;29;20057;-72
2022/04/06 01:45:14;;;;;;;9.90;9.30;;;;;;;8.81;95.40;98791.50;10085461;29;20045;-73
2022/04/06 01:55:36;;;;;;;10.60;9.90;;;;;;;8.77;96.33;98792.56;10100704;29;20048;-71
2022/04/06 02:00:39;;;;;;;11.13;10.43;;;;;;;8.76;96.22;98790.81;10100462;29;20053;-72
2022/04/06 02:05:41;;;;;;;12.45;11.40;;;;;;;8.90;96.08;98788.47;10100827;29;20467;-71
2022/04/06 02:10:42;;;;;;;11.82;11.13;;;;;;;8.90;95.49;98784.97;10100114;29;20444;-72
2022/04/06 02:15:46;;;;;;;11.93;11.20;;;;;;;8.92;95.19;98791.84;10102108;29;20048;-73
2022/04/06 02:20:47;;;;;;;11.48;10.68;;;;;;;9.00;94.38;98783.66;10100866;29;20132;-74
2022/04/06 02:25:49;;;;;;;11.77;11.07;;;;;;;9.05;93.29;98790.38;10099510;29;20041;-72
2022/04/06 02:30:50;;;;;;;11.30;10.50;;;;;;;9.06;93.41;98786.84;10099603;29;20081;-73
2022/04/06 02:35:52;;;;;;;12.35;11.55;;;;;;;9.01;94.16;98775.72;10098733;29;20045;-72
2022/04/06 02:40:54;;;;;;;12.25;11.35;;;;;;;9.09;93.42;98788.47;10099793;29;20109;-71
2022/04/06 02:45:55;;;;;;;12.90;12.00;;;;;;;9.05;93.84;98774.66;10098893;29;20036;-72
2022/04/06 02:50:57;;;;;;;11.55;10.77;;;;;;;9.14;92.34;98780.41;10097482;29;20049;-72
2022/04/06 02:55:58;;;;;;;10.93;10.13;;;;;;;9.13;91.58;98781.31;10097283;29;20118;-72
2022/04/06 03:01:00;;;;;;;10.48;9.77;;;;;;;9.27;90.70;98776.28;10097670;29;20053;-71
2022/04/06 03:06:02;;;;;;;10.73;10.02;;;;;;;9.19;91.19;98778.41;10099152;29;20049;-72
2022/04/06 03:11:03;;;;;;;10.93;10.20;;;;;;;9.19;91.52;98779.25;10098208;29;20076;-72
2022/04/06 03:16:06;;;;;;;10.38;9.68;;;;;;;9.15;91.89;98782.94;10100535;29;20041;-72
2022/04/06 03:21:08;;;;;;;10.55;9.80;;;;;;;9.16;91.87;98782.00;10099298;29;20045;-72
2022/04/06 03:26:09;;;;;;;9.93;9.32;;;;;;;9.27;90.87;98786.78;10099575;29;20116;-72
2022/04/06 03:31:11;;;;;;;10.10;9.40;;;;;;;9.16;91.26;98779.38;10097792;29;20053;-72
2022/04/06 03:36:13;;;;;;;9.57;8.98;;;;;;;9.16;90.22;98781.16;10098712;29;20101;-72
2022/04/06 03:41:14;;;;;;;12.65;8.75;;;;;;;9.18;89.51;98780.19;10105188;29;20115;-72
2022/04/06 03:46:16;;;;;;;10.23;9.30;;;;;;;9.30;89.06;98770.91;10105507;29;20101;-72
2022/04/06 03:51:18;;;;;;;12.85;10.20;;;;;;;9.17;89.80;98772.41;10104583;29;20053;-73
2022/04/06 03:56:20;;;;;;;14.10;8.88;;;;;;;9.09;89.96;98776.22;10105787;29;20045;-73
2022/04/06 04:01:22;;;;;;;10.13;9.43;;;;;;;9.21;89.15;98780.06;10103615;29;20093;-72
2022/04/06 04:06:23;;;;;;;9.73;9.02;;;;;;;9.22;88.38;98783.53;10104862;29;20462;-73
2022/04/06 04:11:25;;;;;;;10.05;9.35;;;;;;;9.18;88.86;98774.94;10103120;29;20057;-74
2022/04/06 04:16:26;;;;;;;10.85;10.05;;;;;;;9.28;87.76;98780.59;10104281;29;20077;-73
2022/04/06 04:21:32;;;;;;;10.32;9.50;;;;;;;9.40;85.97;98776.56;10104348;29;20555;-72
2022/04/06 04:26:36;;;;;;;10.77;9.98;;;;;;;9.41;85.87;98779.13;10103197;29;20093;-72
2022/04/06 04:31:37;;;;;;;10.50;9.77;;;;;;;9.50;85.35;98778.69;10104577;29;20041;-73
2022/04/06 04:36:39;;;;;;;10.20;9.50;;;;;;;9.51;84.21;98780.38;10103726;29;20385;-72
2022/04/06 04:41:41;;;;;;;10.05;9.45;;;;;;;9.48;84.95;98785.78;10103106;29;20052;-73
2022/04/06 04:46:42;;;;;;;10.13;9.32;;;;;;;9.39;85.62;98780.13;10103405;29;20105;-72
2022/04/06 04:51:44;;;;;;;9.27;8.48;;;;;;;9.43;85.27;98787.78;10101797;29;20488;-73
2022/04/06 04:56:46;;;;;;;10.10;8.43;;;;;;;9.53;83.79;98780.31;10102424;29;20461;-72
2022/04/06 05:01:47;;;;;;;8.40;7.82;;;;;;;9.52;83.31;98795.22;10102714;29;20048;-73
2022/04/06 05:06:49;;;;;;;7.97;7.38;;;;;;;9.62;81.63;98779.88;10101412;29;20121;-73
2022/04/06 05:11:50;;;;;;;7.65;7.10;;;;;;;9.63;81.59;98788.59;10102938;29;20499;-72
2022/04/06 05:16:52;;;;;;;8.23;7.63;;;;;;;9.60;81.78;98789.56;10101915;29;20048;-73
2022/04/06 05:21:54;;;;;;;8.13;7.50;;;;;;;9.71;81.61;98794.31;10101236;29;20056;-73
2022/04/06 05:32:11;;;;;;;8.07;7.47;;;;;;;9.72;80.47;98798.66;10008618;29;20062;-73
2022/04/06 05:37:13;;;;;;;7.55;6.93;;;;;;;9.87;78.27;98792.66;9996262;29;20054;-73
2022/04/06 05:42:21;;;;;;;7.35;6.75;;;;;;;9.82;78.99;98800.75;9998219;29;20070;-73
2022/04/06 05:47:24;;;;;;;7.65;7.07;;;;;;;9.97;78.58;98808.81;9997615;29;20074;-72
2022/04/06 05:52:27;;;;;;;8.02;7.25;;;;;;;9.82;79.15;98816.50;9997747;29;20512;-73
2022/04/06 05:57:29;;;;;;;7.47;6.30;;;;;;;9.95;77.76;98832.50;9997041;29;20089;-73
2022/04/06 06:02:31;;;;;;;7.30;6.70;;;;;;;9.93;78.47;98844.88;9994947;29;20055;-73
2022/04/06 06:07:33;;;;;;;8.23;7.63;;;;;;;9.72;82.31;98861.63;9998141;29;20042;-73
2022/04/06 06:12:36;;;;;;;9.75;9.07;;;;;;;9.32;88.33;98864.31;9994251;29;20478;-73
2022/04/06 06:17:39;;;;;;;10.57;9.88;;;;;;;9.10;92.80;98876.69;9997220;29;20072;-72
2022/04/06 06:22:42;;;;;;;11.15;10.35;;;;;;;8.83;95.83;98863.88;9997279;29;20115;-74
2022/04/06 06:27:46;;;;;;;10.02;9.32;;;;;;;8.70;95.95;98865.31;9998737;29;20386;-74
2022/04/06 06:32:52;;;;;;;10.90;10.10;;;;;;;8.56;97.05;98871.13;10000937;29;20047;-75
2022/04/06 06:37:56;;;;;;;10.40;8.98;;;;;;;8.56;97.12;98879.00;9995047;29;20050;-73
2022/04/06 06:42:58;;;;;;;9.40;8.60;;;;;;;8.61;97.51;98870.94;9993919;29;20058;-73
2022/04/06 06:48:03;;;;;;;8.82;8.13;;;;;;;8.73;98.36;98869.56;9991470;29;20442;-72
2022/04/06 06:53:05;;;;;;;8.95;8.30;;;;;;;8.86;97.70;98869.91;9975854;29;20066;-74
2022/04/06 06:58:08;;;;;;;8.70;8.00;;;;;;;9.07;96.70;98871.56;9995312;29;20125;-74
2022/04/06 07:03:18;;;;;;;8.63;8.02;;;;;;;9.10;97.81;98874.06;9995372;29;20129;-73
2022/04/06 07:08:22;;;;;;;9.00;8.30;;;;;;;9.38;94.81;98865.78;9992491;29;20133;-73
2022/04/06 07:13:24;;;;;;;9.45;8.75;;;;;;;9.47;94.66;98856.66;10007428;29;20560;-71
2022/04/06 07:18:27;;;;;;;10.05;9.30;;;;;;;9.88;94.21;98846.88;9998825;29;20054;-74
2022/04/06 07:23:33;;;;;;;;;;;;;;;10.08;91.83;98832.75;9999342;29;20066;-73
2022/04/06 07:28:35;;;;;;;9.57;8.55;;;;;;;10.42;91.37;98829.34;9998146;29;20317;-72
2022/04/06 07:33:38;;;;;;;7.90;7.30;;;;;;;10.63;84.09;98821.31;9995448;29;20087;-73
2022/04/06 07:38:40;;;;;;;7.30;6.70;;;;;;;10.53;82.67;98827.03;10005981;29;20042;-72
2022/04/06 07:43:41;;;;;;;5.95;5.38;;;;;;;10.59;77.68;98826.72;9991319;29;20047;-72
2022/04/06 07:48:43;;;;;;;6.00;5.57;;;;;;;10.42;77.65;98826.72;9995246;29;20185;-72
2022/04/06 07:53:45;;;;;;;5.55;5.05;;;;;;;10.50;76.77;98826.34;9988877;29;20046;-72
2022/04/06 07:58:52;;;;;;;5.30;4.78;;;;;;;10.53;73.36;98829.63;9989378;29;20042;-72
2022/04/06 08:03:54;;;;;;;5.28;4.78;;;;;;;10.54;73.46;98812.13;9989710;29;20058;-72
2022/04/06 08:08:55;;;;;;;5.40;4.90;;;;;;;10.72;72.81;98810.34;9988260;29;20053;-73
2022/04/06 08:13:57;;;;;;;5.63;4.82;;;;;;;10.74;73.09;98804.06;9992705;29;20054;-72
2022/04/06 08:18:59;;;;;;;3.97;3.67;;;;;;;10.98;70.50;98814.19;9987873;29;20058;-72
2022/04/06 08:24:00;;;;;;;5.22;4.80;;;;;;;11.01;70.17;98816.69;9988113;29;20239;-71
2022/04/06 08:29:02;;;;;;;4.25;3.92;;;;;;;11.12;67.49;98811.72;9988416;29;20062;-73
2022/04/06 08:34:05;;;;;;;5.68;3.78;;;;;;;11.24;67.86;98816.28;9990046;29;20050;-71
2022/04/06 08:39:07;;;;;;;4.60;3.88;;;;;;;11.42;68.78;98803.94;10002851;29;20449;-72
2022/04/06 08:44:09;;;;;;;4.78;3.83;;;;;;;11.60;64.59;98810.81;9986565;29;20053;-74
2022/04/06 08:49:11;;;;;;;5.90;3.22;;;;;;;11.82;64.59;98813.16;9987235;29;20141;-73
2022/04/06 08:54:13;;;;;;;5.32;4.03;;;;;;;12.01;62.56;98812.09;9993034;29;20564;-73
2022/04/06 08:59:15;;;;;;;5.00;3.58;;;;;;;11.93;62.73;98811.69;9988778;29;20421;-72
2022/04/06 09:04:20;;;;;;;4.00;3.50;;;;;;;11.96;62.60;98815.00;9989286;29;20085;-73
2022/04/06 09:09:36;;;;;;;5.43;3.30;;;;;;;12.09;62.65;98813.34;9989638;29;20145;-72
2022/04/06 09:14:38;;;;;;;3.73;2.80;;;;;;;11.88;61.95;98824.25;9988049;29;20054;-73
2022/04/06 09:19:46;;;;;;;5.20;3.58;;;;;;;11.43;64.67;98831.94;9990353;29;20144;-72
2022/04/06 09:24:57;;;;;;;5.22;3.53;;;;;;;11.17;68.15;98829.88;9987023;29;20099;-72
2022/04/06 09:30:03;;;;;;;4.82;4.43;;;;;;;11.19;68.95;98813.06;9986745;29;20123;-72
2022/04/06 09:35:28;;;;;;;4.27;3.87;;;;;;;11.53;69.23;98809.47;10000538;29;20046;-72
2022/04/06 09:40:30;;;;;;;4.93;4.53;;;;;;;12.18;66.09;98801.44;9990191;29;20050;-73
2022/04/06 09:50:58;;;;;;;5.65;3.78;;;;;;;12.86;61.14;98785.94;9986670;29;20050;-73
2022/04/06 09:56:08;;;;;;;4.68;3.83;;;;;;;13.03;58.80;98774.34;9986880;29;20129;-74
2022/04/06 10:01:09;;;;;;;3.60;3.30;;;;;;;12.69;59.60;98774.72;9990701;29;20058;-73
2022/04/06 10:06:12;;;;;;;4.38;3.15;;;;;;;12.97;57.56;98764.19;9987330;29;20047;-73
2022/04/06 10:11:17;;;;;;;3.67;3.05;;;;;;;12.99;56.73;98758.81;9987210;29;20129;-73
2022/04/06 10:16:20;;;;;;;4.50;3.53;;;;;;;12.68;56.12;98747.50;10000210;29;20057;-73
2022/04/06 10:21:26;;;;;;;3.30;3.00;;;;;;;12.75;58.66;98738.28;9988163;29;20080;-72
2022/04/06 10:26:36;;;;;;;3.40;2.90;;;;;;;13.62;53.85;98727.50;9985788;29;20054;-72
2022/04/06 10:31:38;;;;;;;3.20;2.70;;;;;;;14.09;50.32;98717.41;9987561;29;20425;-73
2022/04/06 10:36:40;;;;;;;3.38;2.67;;;;;;;14.31;49.00;98715.00;9986818;29;20075;-72
2022/04/06 10:42:13;;;;;;;5.50;2.25;;;;;;;14.03;49.49;98721.31;9987326;29;20050;-73
2022/04/06 10:47:14;;;;;;;3.33;2.67;;;;;;;14.03;48.80;98708.09;9985635;29;20054;-73
2022/04/06 10:52:18;;;;;;;2.92;2.55;;;;;;;14.74;48.28;98705.94;9984010;29;20506;-73
2022/04/06 10:57:21;;;;;;;3.08;2.72;;;;;;;15.08;46.30;98692.00;9985005;29;20489;-73
2022/04/06 11:02:26;;;;;;;2.92;2.47;;;;;;;15.28;45.43;98687.09;9984344;29;20053;-73
2022/04/06 11:12:59;;;;;;;3.78;2.88;;;;;;;14.45;47.34;98681.50;9984034;29;20057;-73
2022/04/06 11:18:01;;;;;;;3.65;2.67;;;;;;;14.80;48.93;98679.06;9984251;29;20046;-73
2022/04/06 11:23:06;;;;;;;5.78;2.50;;;;;;;15.44;46.78;98661.19;9970261;29;20062;-73
2022/04/06 11:28:33;;;;;;;3.60;3.22;;;;;;;15.63;45.87;98658.88;10001590;23;20062;-73
2022/04/06 11:33:42;;;;;;;2.92;2.58;;;;;;;16.14;47.79;98650.63;9984148;29;20054;-74
2022/04/06 11:38:49;;;;;;;3.90;3.05;;;;;;;16.29;45.29;98655.69;9985870;29;20046;-74
2022/04/06 11:43:51;;;;;;;4.47;3.88;;;;;;;15.50;46.24;98650.16;9986394;29;20054;-73
2022/04/06 11:48:53;;;;;;;4.05;3.22;;;;;;;15.66;48.10;98638.44;9986407;29;20053;-73
2022/04/06 11:53:54;;;;;;;3.97;3.20;;;;;;;15.86;46.26;98638.63;9986119;29;20054;-73
2022/04/06 11:58:57;;;;;;;4.60;3.15;;;;;;;15.59;47.15;98628.28;9987180;29;20062;-74
2022/04/06 12:03:59;;;;;;;3.47;3.17;;;;;;;15.53;47.83;98625.22;9992362;29;20056;-72
2022/04/06 12:09:01;;;;;;;4.13;3.35;;;;;;;15.56;47.58;98617.91;9989942;29;20099;-73
2022/04/06 12:14:10;;;;;;;5.13;3.50;;;;;;;14.93;47.47;98623.50;9990151;29;20059;-73
2022/04/06 12:19:13;;;;;;;3.28;2.95;;;;;;;14.47;48.78;98632.00;9991072;29;20050;-73
2022/04/06 12:24:17;;;;;;;4.00;3.70;;;;;;;14.39;50.82;98619.34;9990919;29;20058;-72
2022/04/06 12:29:19;;;;;;;3.95;3.65;;;;;;;14.58;51.36;98608.31;9990480;29;20042;-74
2022/04/06 12:34:39;;;;;;;4.30;3.33;;;;;;;14.87;49.55;98595.66;9991122;29;20051;-73
2022/04/06 12:39:51;;;;;;;4.00;3.70;;;;;;;14.80;50.91;98602.34;9990574;29;20081;-72
2022/04/06 12:44:55;;;;;;;3.90;3.28;;;;;;;14.58;50.07;98609.16;9989827;29;20052;-73
2022/04/06 12:50:19;;;;;;;6.25;4.38;;;;;;;14.29;51.08;98597.13;9989783;29;20093;-73
2022/04/06 12:55:20;;;;;;;4.70;4.22;;;;;;;14.33;50.30;98595.94;9989992;29;20054;-74
2022/04/06 13:00:22;;;;;;;4.75;3.83;;;;;;;14.58;50.65;98595.09;9989933;29;20072;-75
2022/04/06 13:05:24;;;;;;;3.95;3.65;;;;;;;14.64;51.20;98587.56;9988359;29;20054;-73
2022/04/06 13:10:31;;;;;;;4.07;3.67;;;;;;;14.77;50.37;98578.75;9988171;29;20054;-73
2022/04/06 13:15:33;;;;;;;;;;;;;;;14.78;48.93;98561.94;9989093;29;20494;-72
2022/04/06 13:20:34;;;;;;;3.20;2.92;;;;;;;14.63;50.17;98566.53;9988482;29;20310;-73
2022/04/06 13:25:36;;;;;;;3.92;3.30;;;;;;;14.71;48.97;98571.28;9988243;29;20056;-73
2022/04/06 13:30:38;;;;;;;5.00;3.95;;;;;;;14.90;49.15;98561.03;9988597;29;20061;-73
2022/04/06 13:35:40;;;;;;;3.55;3.25;;;;;;;15.07;47.14;98550.06;9989708;29;20050;-74
2022/04/06 13:40:43;;;;;;;3.97;3.50;;;;;;;15.07;48.51;98558.00;9988619;29;20047;-74
2022/04/06 13:45:45;;;;;;;3.50;3.20;;;;;;;15.19;48.38;98539.53;9987171;29;20421;-73
2022/04/06 13:50:46;;;;;;;3.85;3.10;;;;;;;15.47;47.50;98533.00;9987159;29;20050;-73
2022/04/06 13:55:48;;;;;;;3.35;3.03;;;;;;;15.50;45.62;98532.78;9987542;29;20061;-73
2022/04/06 14:00:49;;;;;;;3.17;2.88;;;;;;;15.24;47.34;98509.13;9989133;29;20053;-73
2022/04/06 14:05:55;;;;;;;3.33;2.90;;;;;;;15.26;46.44;98516.94;9987900;29;20390;-73
2022/04/06 14:10:57;;;;;;;2.92;2.60;;;;;;;15.18;46.71;98514.00;9987906;29;20110;-72
2022/04/06 14:15:59;;;;;;;4.72;3.95;;;;;;;15.19;46.86;98507.78;9986787;29;20066;-73
2022/04/06 14:21:01;;;;;;;3.33;3.03;;;;;;;15.13;45.05;98495.84;9986193;29;20061;-72
2022/04/06 14:26:03;;;;;;;2.42;2.22;;;;;;;15.28;45.81;98493.84;9984012;29;20046;-73
2022/04/06 14:31:07;;;;;;;2.53;2.30;;;;;;;15.32;46.75;98485.56;9986202;29;20080;-73
2022/04/06 14:36:09;;;;;;;4.07;3.30;;;;;;;15.31;45.22;98489.16;9986198;29;20339;-73
2022/04/06 14:41:10;;;;;;;3.28;2.42;;;;;;;15.27;45.70;98479.78;9985659;29;20054;-73
2022/04/06 14:46:12;;;;;;;3.47;2.40;;;;;;;15.45;46.56;98469.59;9986497;29;20115;-74
2022/04/06 14:51:14;;;;;;;3.17;2.80;;;;;;;15.52;46.06;98470.78;9985568;29;20046;-72
2022/04/06 14:56:21;;;;;;;3.28;2.97;;;;;;;15.25;44.86;98478.19;9985951;29;20050;-74
2022/04/06 15:01:22;;;;;;;3.38;2.60;;;;;;;14.99;46.96;98473.06;9985940;29;20042;-73
2022/04/06 15:06:24;;;;;;;2.75;2.42;;;;;;;14.91;48.06;98469.28;9984208;29;20088;-73
2022/04/06 15:11:26;;;;;;;3.38;3.08;;;;;;;15.02;47.10;98462.25;9985185;29;20053;-74
2022/04/06 15:16:28;;;;;;;3.35;3.00;;;;;;;14.98;46.73;98452.84;9983968;29;20405;-72
2022/04/06 15:21:29;;;;;;;3.13;2.83;;;;;;;14.97;47.44;98450.31;9985076;29;20072;-73
2022/04/06 15:26:31;;;;;;;2.63;2.42;;;;;;;14.93;49.11;98455.00;9985316;29;20099;-73
2022/04/06 15:31:33;;;;;;;3.08;2.35;;;;;;;14.90;48.68;98457.88;9985513;29;20054;-73
2022/04/06 15:41:55;;;;;;;3.97;3.03;;;;;;;14.87;46.81;98447.50;9992459;29;20051;-73
2022/04/06 15:46:56;;;;;;;3.60;2.88;;;;;;;14.70;46.90;98440.84;9991809;29;20046;-74
2022/04/06 15:51:58;;;;;;;2.78;2.42;;;;;;;14.76;49.06;98440.38;9992362;29;20582;-73
2022/04/06 15:57:00;;;;;;;3.60;3.30;;;;;;;14.77;48.88;98438.56;9991663;29;20046;-74
2022/04/06 16:02:01;;;;;;;3.85;2.55;;;;;;;14.73;47.75;98435.31;9990938;29;20482;-74
2022/04/06 16:07:04;;;;;;;3.25;2.55;;;;;;;14.59;48.16;98432.84;9991458;29;20129;-73
2022/04/06 16:12:08;;;;;;;3.53;2.42;;;;;;;14.53;48.24;98428.84;9991785;29;20054;-73
2022/04/06 16:17:09;;;;;;;2.80;2.20;;;;;;;14.59;49.19;98424.91;9988855;29;20064;-73
2022/04/06 16:22:11;;;;;;;3.65;2.47;;;;;;;14.53;49.07;98420.09;9986858;29;20050;-73
2022/04/06 16:27:13;;;;;;;2.88;2.08;;;;;;;14.62;48.23;98420.25;9986785;29;20360;-73
2022/04/06 16:32:14;;;;;;;3.05;2.78;;;;;;;14.47;48.75;98409.91;9985330;29;20050;-73
2022/04/06 16:37:16;;;;;;;3.13;2.78;;;;;;;14.50;49.14;98404.44;9988865;29;20049;-72
2022/04/06 16:42:18;;;;;;;6.35;2.83;;;;;;;14.32;49.67;98404.78;9990308;29;20051;-72
2022/04/06 16:47:19;;;;;;;3.63;2.10;;;;;;;14.03;51.23;98391.06;9988454;29;20053;-73
2022/04/06 16:52:40;;;;;;;2.33;2.10;;;;;;;14.05;50.49;98402.34;9989895;29;20054;-72
2022/04/06 16:57:43;;;;;;;2.95;2.30;;;;;;;14.14;49.26;98396.41;9990642;29;20046;-74
2022/04/06 17:02:48;;;;;;;3.25;2.50;;;;;;;14.03;49.35;98395.47;9986221;29;20050;-75
2022/04/06 17:07:51;;;;;;;2.13;1.92;;;;;;;13.87;50.73;98403.69;9985137;29;20042;-73
2022/04/06 17:12:53;;;;;;;3.28;2.58;;;;;;;13.59;51.53;98400.34;9986903;29;20467;-73
2022/04/06 17:17:59;;;;;;;2.95;2.00;;;;;;;13.67;50.77;98405.06;9989825;29;20409;-73
2022/04/06 17:23:03;;;;;;;2.60;2.10;;;;;;;13.55;51.74;98404.16;9988187;29;20114;-74
2022/04/06 17:28:05;;;;;;;3.97;1.98;;;;;;;13.57;49.79;98406.69;9988430;29;20053;-73
2022/04/06 17:33:07;;;;;;;4.70;1.98;;;;;;;13.40;50.41;98409.66;10074993;23;20567;-74
2022/04/06 17:38:13;;;;;;;1.58;1.20;;;;;;;13.26;49.37;98408.78;10112642;29;20055;-74
2022/04/06 17:43:18;;;;;;;2.50;1.50;;;;;;;13.19;49.09;98407.47;10074980;29;20128;-75
2022/04/06 17:48:25;;;;;;;2.00;1.40;;;;;;;13.19;49.64;98409.28;10060058;29;20137;-74
2022/04/06 17:53:27;;;;;;;2.58;1.50;;;;;;;13.16;48.91;98406.88;10073155;29;20094;-74
2022/04/06 17:58:29;;;;;;;2.47;1.77;;;;;;;12.85;50.06;98409.78;10070797;29;20530;-74
2022/04/06 18:03:34;;;;;;;2.08;1.30;;;;;;;12.90;49.66;98406.84;10072510;29;20049;-74
2022/04/06 18:08:37;;;;;;;2.78;1.35;;;;;;;12.68;50.70;98407.41;10072738;29;20034;-75
2022/04/06 18:13:43;;;;;;;2.28;1.60;;;;;;;12.72;49.97;98408.06;10072696;29;20057;-75
2022/04/06 18:18:49;;;;;;;1.85;1.38;;;;;;;12.53;50.56;98401.38;10072704;29;20053;-74
2022/04/06 18:23:53;;;;;;;2.95;1.40;;;;;;;12.53;50.70;98398.75;10070621;29;20053;-74
2022/04/06 18:28:55;;;;;;;1.55;1.23;;;;;;;12.29;51.39;98406.44;10069712;29;20423;-75
2022/04/06 18:33:58;;;;;;;3.00;1.63;;;;;;;12.22;51.45;98396.38;10069432;29;20160;-75
2022/04/06 18:39:07;;;;;;;2.28;1.42;;;;;;;11.83;52.72;98388.31;10074404;29;20065;-75
2022/04/06 18:44:11;;;;;;;6.28;1.55;;;;;;;11.69;53.20;98382.22;10071201;29;20070;-74
2022/04/06 18:49:15;;;;;;;2.95;1.63;;;;;;;11.54;53.92;98383.97;10067468;29;20046;-74
2022/04/06 18:54:24;;;;;;;2.97;2.38;;;;;;;11.47;54.48;98391.44;10071695;29;20054;-74
2022/04/06 18:59:28;;;;;;;2.35;1.60;;;;;;;11.32;54.74;98397.63;10071814;29;20421;-74
2022/04/06 19:04:32;;;;;;;3.90;2.63;;;;;;;11.26;55.93;98388.31;10072800;29;20064;-74
2022/04/06 19:09:35;;;;;;;2.90;2.10;;;;;;;11.18;56.33;98392.34;10072955;29;20034;-73
2022/04/06 19:14:37;;;;;;;11.27;2.50;;;;;;;11.28;58.00;98396.09;10082222;29;20046;-75
2022/04/06 19:19:39;;;;;;;3.00;1.42;;;;;;;10.90;58.96;98391.38;10080207;29;20056;-74
2022/04/06 19:24:41;;;;;;;2.00;1.90;;;;;;;10.78;58.95;98389.47;10081453;29;20049;-75
2022/04/06 19:29:44;;;;;;;2.25;2.05;;;;;;;10.91;58.71;98387.81;10079508;29;20049;-75
2022/04/06 19:34:47;;;;;;;2.63;2.15;;;;;;;10.81;59.10;98389.28;10077175;29;20113;-75
2022/04/06 19:39:50;;;;;;;2.42;1.98;;;;;;;10.78;59.16;98390.31;10078457;29;20061;-74
2022/04/06 19:44:54;;;;;;;2.75;2.00;;;;;;;10.96;58.38;98385.75;10081552;29;20457;-74
2022/04/06 19:50:00;;;;;;;2.15;1.58;;;;;;;10.93;58.67;98391.16;10076302;29;20049;-75
2022/04/06 19:55:05;;;;;;;3.08;1.95;;;;;;;10.83;59.31;98383.00;10076852;29;20117;-75
2022/04/06 20:00:08;;;;;;;2.95;2.38;;;;;;;10.91;59.22;98374.66;10061692;29;20073;-74
2022/04/06 20:05:10;;;;;;;1.70;1.60;;;;;;;10.98;59.12;98372.50;10080106;29;20078;-74
2022/04/06 20:10:12;;;;;;;2.30;1.75;;;;;;;10.90;59.10;98362.47;10072619;29;20053;-75
2022/04/06 20:15:14;;;;;;;1.67;1.50;;;;;;;11.27;57.93;98357.59;10057411;29;20057;-76
2022/04/06 20:20:17;;;;;;;1.70;1.60;;;;;;;11.13;58.04;98353.19;10073340;29;20045;-74
2022/04/06 20:25:20;;;;;;;2.42;1.58;;;;;;;11.18;57.99;98343.22;10077030;29;20057;-74
2022/04/06 20:30:22;;;;;;;2.97;1.90;;;;;;;11.13;58.55;98336.56;10075236;29;20077;-74
2022/04/06 20:35:23;;;;;;;2.38;1.80;;;;;;;11.16;57.95;98339.84;10078250;29;20074;-73
2022/04/06 20:40:25;;;;;;;1.80;1.67;;;;;;;11.24;57.45;98337.56;10072552;29;20038;-74
2022/04/06 20:45:27;;;;;;;3.10;1.52;;;;;;;11.20;57.79;98333.47;10072949;29;20056;-75
2022/04/06 20:50:29;;;;;;;1.70;1.42;;;;;;;11.38;56.48;98339.38;10075447;29;20139;-74
2022/04/06 20:55:31;;;;;;;2.72;1.80;;;;;;;11.37;56.56;98343.78;10068805;29;20080;-75
2022/04/06 21:00:33;;;;;;;3.00;1.70;;;;;;;11.33;56.94;98352.81;10070916;29;20081;-75
2022/04/06 21:05:34;;;;;;;2.30;1.25;;;;;;;11.40;54.62;98349.78;10067480;29;20054;-75
2022/04/06 21:10:36;;;;;;;2.72;1.35;;;;;;;11.31;54.30;98348.56;10074602;29;20101;-74
2022/04/06 21:15:38;;;;;;;3.47;1.33;;;;;;;11.44;53.09;98335.50;10066490;29;20049;-74
2022/04/06 21:20:43;;;;;;;2.60;1.17;;;;;;;11.38;53.41;98334.13;10068733;29;20410;-74
2022/04/06 21:25:45;;;;;;;2.03;1.23;;;;;;;11.21;53.57;98331.69;10069583;29;20492;-74
2022/04/06 21:30:46;;;;;;;2.72;1.10;;;;;;;11.13;54.33;98326.03;10068029;29;20074;-73
2022/04/06 21:35:48;;;;;;;1.45;1.10;;;;;;;11.05;54.76;98323.88;10064737;29;20081;-74
2022/04/06 21:40:50;;;;;;;3.10;1.25;;;;;;;11.00;55.09;98324.16;10048550;29;20464;-74
2022/04/06 21:45:51;;;;;;;2.67;1.15;;;;;;;10.96;54.95;98327.91;10064032;29;20092;-74
2022/04/06 21:50:53;;;;;;;2.38;1.15;;;;;;;10.91;55.05;98324.72;10062055;29;20084;-74
2022/04/06 21:55:55;;;;;;;2.95;1.40;;;;;;;10.84;55.18;98328.63;10066054;29;20501;-73
2022/04/06 22:00:56;;;;;;;2.28;1.00;;;;;;;10.91;55.57;98319.47;10063104;29;20065;-73
2022/04/06 22:06:01;;;;;;;3.50;1.00;;;;;;;10.79;55.49;98315.78;10061496;29;20503;-74
2022/04/06 22:11:03;;;;;;;3.58;1.38;;;;;;;10.66;56.17;98312.19;10066313;29;20089;-74
2022/04/06 22:16:05;;;;;;;3.65;1.30;;;;;;;10.69;56.70;98309.38;10065749;29;20077;-74
2022/04/06 22:21:07;;;;;;;3.60;1.60;;;;;;;10.66;57.18;98313.97;10061934;29;20034;-74
2022/04/06 22:26:09;;;;;;;2.55;1.20;;;;;;;10.69;56.74;98317.25;10061961;29;20061;-74
2022/04/06 22:31:11;;;;;;;1.92;1.25;;;;;;;10.65;56.99;98310.50;10046144;29;20549;-74
2022/04/06 22:36:13;;;;;;;2.00;1.20;;;;;;;10.50;57.96;98308.78;10064436;29;20057;-73
2022/04/06 22:41:14;;;;;;;5.00;1.50;;;;;;;10.59;57.37;98303.84;10064220;29;20049;-74
2022/04/06 22:46:16;;;;;;;2.55;1.40;;;;;;;10.65;57.31;98305.25;10062834;29;20049;-74
2022/04/06 22:51:18;;;;;;;2.30;1.33;;;;;;;10.66;57.40;98301.66;10063758;29;20400;-74
2022/04/06 22:56:20;;;;;;;2.97;1.27;;;;;;;10.53;57.69;98277.91;10062625;29;20045;-74
2022/04/06 23:01:21;;;;;;;2.55;1.45;;;;;;;10.56;57.56;98269.84;10063450;29;20079;-74
2022/04/06 23:06:23;;;;;;;2.50;1.60;;;;;;;10.60;58.12;98265.25;10061865;29;20414;-73
2022/04/06 23:11:25;;;;;;;2.75;1.33;;;;;;;10.54;57.77;98261.22;10060164;29;20064;-74
2022/04/06 23:16:28;;;;;;;1.77;1.20;;;;;;;10.56;57.71;98248.84;10059730;29;20061;-74
2022/04/06 23:21:30;;;;;;;2.28;1.00;;;;;;;10.56;58.14;98258.50;10062908;29;20106;-74
2022/04/06 23:26:32;;;;;;;1.98;1.00;;;;;;;10.43;58.27;98262.78;10060188;29;20054;-75
2022/04/06 23:31:33;;;;;;;1.55;1.25;;;;;;;10.26;59.15;98258.53;10065902;23;20467;-70
2022/04/06 23:36:35;;;;;;;1.83;0.90;;;;;;;10.17;59.40;98246.75;10135816;29;20112;-71
2022/04/06 23:41:37;;;;;;;2.78;1.20;;;;;;;10.17;59.80;98245.91;10109593;29;20083;-71
2022/04/06 23:46:46;;;;;;;2.30;1.27;;;;;;;10.27;58.88;98247.09;10097241;29;20507;-71
2022/04/06 23:51:48;;;;;;;3.17;1.33;;;;;;;10.25;59.14;98243.72;10096298;29;20558;-70
2022/04/06 23:56:50;;;;;;;2.33;1.20;;;;;;;10.13;59.72;98226.88;10100957;29;20495;-70
